Time;durP1;ratioP1;P1;durP2;ratioP2;P2;SDS_P1;SDS_P2;PMS_P1;PMS_P2;Temp;Humidity;BMP_temperature;BMP_pressure;BME280_temperature;BME280_humidity;BME280_pressure;Samples;Min_cycle;Max_cycle;Signal;HPM_P1;HPM_P2
2022/05/16 00:01:51;;;;;;;3.72;2.47;;;20.00;75.00;;;;;;4154335;28;20049;-68
2022/05/16 00:03:52;;;;;;;6.72;2.78;;;19.90;75.20;;;;;;4157162;28;20088;-68
2022/05/16 00:05:52;;;;;;;7.35;2.70;;;19.70;75.70;;;;;;4155131;28;20033;-68
2022/05/16 00:07:53;;;;;;;7.15;2.88;;;19.50;76.60;;;;;;4156280;28;20676;-68
2022/05/16 00:09:54;;;;;;;7.22;3.05;;;19.30;77.20;;;;;;4154019;28;20041;-68
2022/05/16 00:11:55;;;;;;;5.90;2.63;;;19.10;78.10;;;;;;4157232;28;20030;-68
2022/05/16 00:13:56;;;;;;;6.32;3.00;;;19.00;78.70;;;;;;4154873;28;20523;-67
2022/05/16 00:15:57;;;;;;;9.02;3.30;;;18.90;78.80;;;;;;4155064;28;20041;-67
2022/05/16 00:17:57;;;;;;;9.32;3.55;;;18.80;79.20;;;;;;4156590;28;20453;-68
2022/05/16 00:19:58;;;;;;;8.90;3.20;;;18.70;79.30;;;;;;4156243;28;20400;-67
2022/05/16 00:21:59;;;;;;;6.22;3.15;;;18.70;79.70;;;;;;4155415;28;20132;-67
2022/05/16 00:23:59;;;;;;;9.05;3.17;;;18.70;79.80;;;;;;4157019;28;20079;-68
2022/05/16 00:26:00;;;;;;;6.53;2.85;;;18.60;79.80;;;;;;4156492;28;20041;-68
2022/05/16 00:28:00;;;;;;;7.53;3.22;;;18.70;79.60;;;;;;4155145;28;20398;-67
2022/05/16 00:30:06;;;;;;;7.80;2.85;;;18.70;79.60;;;;;;4154780;28;20043;-67
2022/05/16 00:32:08;;;;;;;7.68;3.45;;;18.70;79.50;;;;;;4156480;28;20030;-68
2022/05/16 00:34:08;;;;;;;9.05;3.08;;;18.70;80.10;;;;;;4154364;28;20107;-68
2022/05/16 00:36:09;;;;;;;6.68;2.78;;;18.60;80.00;;;;;;4156512;28;20029;-68
2022/05/16 00:38:10;;;;;;;7.93;3.08;;;18.70;80.40;;;;;;4158435;28;20025;-67
2022/05/16 00:40:12;;;;;;;6.45;2.63;;;18.80;80.80;;;;;;4156747;28;20037;-67
2022/05/16 00:42:13;;;;;;;5.18;2.80;;;18.80;81.30;;;;;;4156212;28;20072;-67
2022/05/16 00:44:15;;;;;;;4.32;2.45;;;18.90;80.60;;;;;;4158214;28;20029;-67
2022/05/16 00:46:17;;;;;;;4.95;2.53;;;19.00;81.40;;;;;;4154883;28;20060;-67
2022/05/16 00:48:18;;;;;;;6.20;2.83;;;19.00;80.60;;;;;;4155265;28;20120;-67
2022/05/16 00:50:18;;;;;;;5.38;2.45;;;19.10;80.30;;;;;;4158456;28;20033;-67
2022/05/16 00:52:23;;;;;;;9.13;2.95;;;19.20;79.60;;;;;;4157480;28;20473;-68
2022/05/16 00:54:28;;;;;;;5.65;2.63;;;19.30;79.20;;;;;;4156291;28;20042;-68
2022/05/16 00:56:30;;;;;;;6.72;2.90;;;19.30;79.30;;;;;;4156394;28;20046;-67
2022/05/16 00:58:31;;;;;;;6.30;2.63;;;19.40;79.40;;;;;;4154613;28;20038;-67
2022/05/16 01:00:35;;;;;;;4.88;2.40;;;19.40;78.60;;;;;;4157444;28;20274;-68
2022/05/16 01:04:58;;;;;;;5.28;2.80;;;19.40;78.20;;;;;;4157855;28;20484;-67
2022/05/16 01:06:59;;;;;;;7.72;2.40;;;19.30;78.70;;;;;;4154265;28;20052;-67
2022/05/16 01:09:00;;;;;;;5.30;2.63;;;19.20;79.30;;;;;;4156618;28;20519;-69
2022/05/16 01:11:07;;;;;;;4.95;2.85;;;19.20;79.80;;;;;;4152124;28;20069;-67
2022/05/16 01:13:08;;;;;;;6.53;2.92;;;19.10;79.90;;;;;;4156732;28;20121;-68
2022/05/16 01:15:15;;;;;;;5.88;2.95;;;18.90;80.30;;;;;;4156287;28;20491;-68
2022/05/16 01:17:16;;;;;;;7.60;3.53;;;18.60;81.80;;;;;;4156172;28;20429;-67
2022/05/16 01:19:17;;;;;;;6.97;2.78;;;18.40;82.50;;;;;;4145579;28;20113;-67
2022/05/16 01:21:39;;;;;;;5.30;2.85;;;18.20;83.00;;;;;;4147757;28;20037;-67
2022/05/16 01:23:47;;;;;;;9.18;3.38;;;18.30;83.50;;;;;;4149425;28;20561;-68
2022/05/16 01:25:49;;;;;;;6.97;3.35;;;18.20;83.40;;;;;;4149823;28;20033;-67
2022/05/16 01:27:51;;;;;;;;;;;18.20;83.90;;;;;;4156833;28;20030;-67
2022/05/16 01:29:52;;;;;;;8.00;3.00;;;18.20;84.00;;;;;;4152884;28;20742;-67
2022/05/16 01:31:53;;;;;;;6.60;2.90;;;18.20;84.20;;;;;;4152218;28;20088;-67
2022/05/16 01:33:54;;;;;;;6.63;2.60;;;18.20;84.50;;;;;;4154064;28;20124;-67
2022/05/16 01:35:55;;;;;;;5.30;2.75;;;18.30;85.30;;;;;;4152383;28;20042;-67
2022/05/16 01:40:15;;;;;;;5.38;2.42;;;18.50;85.80;;;;;;4147967;28;20034;-67
2022/05/16 01:42:16;;;;;;;6.07;2.38;;;18.60;84.60;;;;;;4152048;28;20528;-67
2022/05/16 01:44:16;;;;;;;6.65;2.38;;;18.60;84.10;;;;;;4148592;28;20471;-67
2022/05/16 01:46:28;;;;;;;3.65;2.28;;;18.70;83.30;;;;;;4156101;28;20252;-67
2022/05/16 01:48:30;;;;;;;5.75;2.35;;;18.80;84.10;;;;;;4155708;28;20038;-67
2022/05/16 01:50:31;;;;;;;;;;;18.80;83.50;;;;;;4157042;28;20101;-67
2022/05/16 01:52:32;;;;;;;4.95;2.50;;;18.90;82.70;;;;;;4150395;28;19916;-67
2022/05/16 01:54:32;;;;;;;5.32;2.45;;;18.90;82.90;;;;;;4153910;28;20053;-68
2022/05/16 01:56:34;;;;;;;4.97;2.58;;;19.00;82.40;;;;;;4152181;28;20049;-68
2022/05/16 01:58:35;;;;;;;7.63;3.03;;;19.00;81.90;;;;;;4154435;28;20042;-67
2022/05/16 02:00:37;;;;;;;4.82;2.58;;;19.00;81.40;;;;;;4155377;28;20040;-68
2022/05/16 02:02:42;;;;;;;4.30;2.65;;;19.10;81.00;;;;;;4150782;28;20037;-68
2022/05/16 02:04:42;;;;;;;6.30;2.90;;;19.10;80.70;;;;;;4157909;28;20026;-67
2022/05/16 02:06:43;;;;;;;10.40;3.38;;;19.00;80.90;;;;;;4148988;28;20107;-67
2022/05/16 02:08:44;;;;;;;6.03;2.80;;;18.90;81.50;;;;;;4153466;28;20377;-68
2022/05/16 02:10:46;;;;;;;4.60;2.83;;;18.80;82.10;;;;;;4159766;28;20093;-67
2022/05/16 02:12:47;;;;;;;5.87;2.90;;;18.80;82.70;;;;;;4152284;28;20045;-67
2022/05/16 02:14:48;;;;;;;7.60;3.30;;;18.80;82.50;;;;;;4153984;28;20283;-67
2022/05/16 02:16:49;;;;;;;7.70;2.90;;;18.70;82.60;;;;;;4156533;28;20120;-67
2022/05/16 02:18:50;;;;;;;6.35;3.08;;;18.60;83.00;;;;;;4151669;28;20607;-67
2022/05/16 02:20:50;;;;;;;8.63;3.13;;;18.40;83.70;;;;;;4160619;28;20041;-67
2022/05/16 02:25:11;;;;;;;12.75;3.63;;;18.00;85.00;;;;;;4150501;28;20033;-70
2022/05/16 02:27:16;;;;;;;7.63;3.38;;;17.80;86.10;;;;;;4151026;28;20030;-67
2022/05/16 02:29:18;;;;;;;6.80;3.30;;;17.70;86.70;;;;;;4148793;28;20034;-67
2022/05/16 02:31:20;;;;;;;7.07;2.75;;;17.60;87.20;;;;;;4153303;28;20056;-67
2022/05/16 02:33:21;;;;;;;5.20;2.67;;;17.60;87.30;;;;;;4160859;28;20052;-67
2022/05/16 02:35:22;;;;;;;5.53;2.53;;;17.70;87.70;;;;;;4152024;28;20037;-67
2022/05/16 02:37:23;;;;;;;5.05;2.80;;;17.70;87.20;;;;;;4156582;28;20096;-67
2022/05/16 02:39:25;;;;;;;6.05;3.10;;;17.70;86.80;;;;;;4160388;28;20034;-67
2022/05/16 02:41:25;;;;;;;8.82;2.58;;;17.70;87.10;;;;;;4159174;28;20029;-67
2022/05/16 02:43:26;;;;;;;6.65;3.00;;;17.70;87.20;;;;;;4160160;28;20612;-67
2022/05/16 02:45:28;;;;;;;5.10;2.78;;;17.80;87.20;;;;;;4159487;28;20409;-67
2022/05/16 02:47:29;;;;;;;3.72;2.53;;;17.80;87.10;;;;;;4157023;28;20437;-67
2022/05/16 02:49:29;;;;;;;5.95;2.65;;;17.80;86.90;;;;;;4155593;28;20037;-67
2022/05/16 02:51:30;;;;;;;5.75;3.20;;;17.90;87.00;;;;;;4151649;28;20083;-67
2022/05/16 02:53:31;;;;;;;6.72;2.53;;;17.90;86.80;;;;;;4158821;28;20095;-67
2022/05/16 02:55:32;;;;;;;6.00;2.40;;;17.90;87.00;;;;;;4157556;28;20053;-68
2022/05/16 02:57:33;;;;;;;5.53;2.80;;;17.90;86.90;;;;;;4159097;28;20079;-68
2022/05/16 02:59:36;;;;;;;6.18;3.20;;;17.90;87.00;;;;;;4155014;28;20041;-68
2022/05/16 03:01:37;;;;;;;6.70;3.08;;;17.80;87.20;;;;;;4157091;28;20034;-67
2022/05/16 03:03:39;;;;;;;7.05;3.10;;;17.80;87.50;;;;;;4160642;28;20040;-67
2022/05/16 03:05:40;;;;;;;4.85;2.38;;;17.70;87.90;;;;;;4156983;28;20029;-68
2022/05/16 03:07:42;;;;;;;6.75;3.05;;;17.70;88.10;;;;;;4156534;28;20026;-68
2022/05/16 03:09:42;;;;;;;5.15;2.97;;;17.70;88.40;;;;;;4160135;28;20053;-67
2022/05/16 03:11:44;;;;;;;5.10;2.80;;;17.70;89.00;;;;;;4157576;28;20512;-68
2022/05/16 03:13:45;;;;;;;5.35;2.95;;;17.70;89.20;;;;;;4159241;28;20032;-67
2022/05/16 03:15:46;;;;;;;6.35;2.90;;;17.80;89.30;;;;;;4155917;28;20477;-68
2022/05/16 03:17:47;;;;;;;7.97;3.22;;;17.90;89.30;;;;;;4159402;28;20030;-67
2022/05/16 03:19:47;;;;;;;6.90;3.10;;;17.90;89.10;;;;;;4155166;28;20096;-67
2022/05/16 03:21:48;;;;;;;4.90;2.97;;;18.00;89.00;;;;;;4154453;28;20109;-67
2022/05/16 03:23:49;;;;;;;6.38;2.83;;;18.00;89.20;;;;;;4151327;28;20469;-67
2022/05/16 03:25:49;;;;;;;7.03;2.97;;;18.10;90.20;;;;;;4152707;28;20026;-67
2022/05/16 03:27:50;;;;;;;6.63;3.30;;;18.10;90.30;;;;;;4159249;28;20064;-67
2022/05/16 03:29:51;;;;;;;9.23;3.45;;;18.00;88.80;;;;;;4156892;28;20038;-67
2022/05/16 03:31:53;;;;;;;4.18;2.67;;;17.90;88.50;;;;;;4157002;28;20051;-67
2022/05/16 03:33:54;;;;;;;9.40;3.08;;;18.00;90.00;;;;;;4159406;28;20025;-67
2022/05/16 03:35:58;;;;;;;5.45;2.50;;;18.00;89.50;;;;;;4157626;28;20037;-67
2022/05/16 03:37:58;;;;;;;7.18;3.00;;;18.00;88.80;;;;;;4156342;28;20499;-67
2022/05/16 03:42:18;;;;;;;3.42;2.45;;;18.10;88.10;;;;;;4148887;28;20501;-67
2022/05/16 03:44:20;;;;;;;5.88;2.60;;;18.10;87.80;;;;;;4157186;28;20080;-67
2022/05/16 03:46:21;;;;;;;7.25;2.97;;;18.10;87.60;;;;;;4155648;28;20040;-67
2022/05/16 03:48:22;;;;;;;5.95;2.80;;;18.00;87.60;;;;;;4156530;28;20042;-67
2022/05/16 03:50:22;;;;;;;4.35;2.88;;;17.90;88.00;;;;;;4155987;28;20052;-67
2022/05/16 03:52:23;;;;;;;5.03;2.63;;;17.90;88.40;;;;;;4155121;28;20032;-67
2022/05/16 03:54:23;;;;;;;4.43;2.70;;;17.80;88.90;;;;;;4156127;28;20118;-67
2022/05/16 03:56:26;;;;;;;6.65;2.80;;;17.90;89.70;;;;;;4156022;28;20117;-67
2022/05/16 03:58:27;;;;;;;5.70;3.25;;;17.80;89.40;;;;;;4153791;28;20582;-67
2022/05/16 04:00:27;;;;;;;5.72;2.58;;;17.90;90.00;;;;;;4157267;28;20037;-67
2022/05/16 04:02:29;;;;;;;5.35;2.90;;;17.90;90.20;;;;;;4147063;28;20034;-67
2022/05/16 04:04:29;;;;;;;8.48;3.17;;;18.00;90.20;;;;;;4153888;28;20045;-67
2022/05/16 04:06:34;;;;;;;4.93;2.85;;;18.00;90.20;;;;;;4150403;28;20034;-67
2022/05/16 04:08:35;;;;;;;6.68;3.10;;;18.00;90.40;;;;;;4158499;28;20033;-67
2022/05/16 04:10:36;;;;;;;6.35;2.75;;;18.00;90.30;;;;;;4156701;28;20046;-67
2022/05/16 04:12:36;;;;;;;8.38;2.88;;;18.10;90.30;;;;;;4151275;28;20092;-67
2022/05/16 04:14:37;;;;;;;6.68;2.80;;;18.10;90.20;;;;;;4152505;28;20053;-67
2022/05/16 04:16:38;;;;;;;5.47;2.83;;;18.10;90.00;;;;;;4153196;28;20041;-68
2022/05/16 04:18:40;;;;;;;8.40;3.65;;;18.20;89.40;;;;;;4157520;28;20030;-67
2022/05/16 04:20:41;;;;;;;8.23;3.35;;;18.10;89.50;;;;;;4153816;28;20037;-67
2022/05/16 04:22:42;;;;;;;6.72;3.17;;;18.00;89.80;;;;;;4157917;28;20033;-67
2022/05/16 04:24:42;;;;;;;5.32;2.83;;;17.80;90.20;;;;;;4157608;28;20515;-67
2022/05/16 04:26:43;;;;;;;5.93;3.05;;;17.80;90.40;;;;;;4148071;28;20038;-67
2022/05/16 04:28:44;;;;;;;6.45;3.60;;;17.90;90.80;;;;;;4155515;28;20158;-67
2022/05/16 04:30:44;;;;;;;6.35;3.08;;;17.90;90.80;;;;;;4154755;28;20033;-67
2022/05/16 04:32:45;;;;;;;8.63;3.05;;;18.00;91.50;;;;;;4151948;28;20030;-67
2022/05/16 04:34:45;;;;;;;10.25;3.67;;;18.00;91.60;;;;;;4154749;28;20041;-67
2022/05/16 04:36:46;;;;;;;5.18;2.92;;;18.00;92.00;;;;;;4158502;28;20033;-67
2022/05/16 04:38:46;;;;;;;6.65;3.40;;;18.10;91.10;;;;;;4156122;28;20033;-67
2022/05/16 04:43:06;;;;;;;6.05;2.95;;;18.20;91.20;;;;;;4153758;28;20509;-67
2022/05/16 04:45:07;;;;;;;6.20;2.88;;;18.20;91.10;;;;;;4154665;28;20084;-67
2022/05/16 04:47:09;;;;;;;6.55;3.35;;;18.20;91.10;;;;;;4157222;28;20116;-67
2022/05/16 04:49:10;;;;;;;5.15;2.92;;;18.30;91.30;;;;;;4157894;28;20049;-67
2022/05/16 04:51:11;;;;;;;4.97;2.70;;;18.30;91.20;;;;;;4155101;28;20164;-67
2022/05/16 04:53:12;;;;;;;4.82;3.00;;;18.30;91.10;;;;;;4156220;28;20124;-67
2022/05/16 04:55:13;;;;;;;7.03;3.05;;;18.30;91.10;;;;;;4152030;28;20057;-68
2022/05/16 04:57:15;;;;;;;5.63;3.17;;;18.40;91.30;;;;;;4155094;28;20080;-67
2022/05/16 04:59:15;;;;;;;6.97;3.45;;;18.40;91.10;;;;;;4154789;28;20030;-68
2022/05/16 05:01:16;;;;;;;4.53;2.90;;;18.40;91.30;;;;;;4153429;28;20044;-67
2022/05/16 05:03:17;;;;;;;13.05;3.08;;;18.50;91.30;;;;;;4157672;28;20038;-67
2022/05/16 05:05:18;;;;;;;5.35;2.95;;;18.50;91.50;;;;;;4152353;28;20041;-68
2022/05/16 05:07:18;;;;;;;7.72;3.58;;;18.60;91.30;;;;;;4154253;28;20045;-67
2022/05/16 05:09:19;;;;;;;7.45;3.60;;;18.60;91.20;;;;;;4154841;28;20092;-68
2022/05/16 05:16:20;;;;;;;6.57;2.95;;;18.60;92.60;;;;;;4155659;28;20449;-67
2022/05/16 05:18:21;;;;;;;5.00;2.90;;;18.60;93.20;;;;;;4154605;28;20037;-67
2022/05/16 05:20:21;;;;;;;5.75;2.75;;;18.60;93.20;;;;;;4156806;28;20692;-68
2022/05/16 05:22:22;;;;;;;8.15;2.95;;;18.70;92.40;;;;;;4151840;28;20468;-68
2022/05/16 05:24:23;;;;;;;9.60;3.05;;;18.70;91.90;;;;;;4157643;28;22457;-68
2022/05/16 05:26:24;;;;;;;5.65;3.08;;;18.70;91.00;;;;;;4155152;28;20112;-68
2022/05/16 05:28:25;;;;;;;5.93;2.85;;;18.80;91.00;;;;;;4153074;28;20041;-68
2022/05/16 05:30:26;;;;;;;6.55;3.03;;;18.90;91.10;;;;;;4155249;28;20712;-68
2022/05/16 05:32:26;;;;;;;5.78;2.70;;;18.90;90.60;;;;;;4158172;28;20034;-68
2022/05/16 05:34:28;;;;;;;5.95;2.60;;;19.00;91.00;;;;;;4160581;28;20041;-68
2022/05/16 05:36:28;;;;;;;6.68;2.60;;;19.00;90.80;;;;;;4158519;28;20121;-68
2022/05/16 05:38:29;;;;;;;10.85;2.95;;;19.10;90.30;;;;;;4159489;28;20489;-68
2022/05/16 05:40:29;;;;;;;5.38;2.55;;;19.20;90.50;;;;;;4156675;28;20037;-68
2022/05/16 05:42:31;;;;;;;15.57;2.90;;;19.20;90.10;;;;;;4158013;28;20049;-68
2022/05/16 05:44:32;;;;;;;6.57;2.63;;;19.20;89.40;;;;;;4160262;28;20045;-68
2022/05/16 05:46:37;;;;;;;8.02;2.90;;;19.30;90.10;;;;;;4157140;28;20044;-68
2022/05/16 05:48:37;;;;;;;5.03;2.25;;;19.40;90.30;;;;;;4156164;28;20246;-68
2022/05/16 05:50:38;;;;;;;7.00;2.80;;;19.50;90.10;;;;;;4159427;28;20440;-68
2022/05/16 05:52:39;;;;;;;4.72;2.67;;;19.60;89.70;;;;;;4158667;28;20045;-68
2022/05/16 05:54:39;;;;;;;8.18;2.38;;;19.70;90.40;;;;;;4155700;28;20029;-68
2022/05/16 05:56:40;;;;;;;8.20;2.70;;;19.70;89.30;;;;;;4154216;28;20040;-68
2022/05/16 05:58:42;;;;;;;9.88;2.88;;;19.70;89.40;;;;;;4157402;28;20033;-69
2022/05/16 06:00:44;;;;;;;6.10;2.40;;;19.80;89.30;;;;;;4158486;28;20044;-69
2022/05/16 06:02:45;;;;;;;6.32;2.17;;;19.80;88.90;;;;;;4159372;28;20045;-69
2022/05/16 06:04:47;;;;;;;6.13;2.60;;;19.80;88.70;;;;;;4158751;28;20460;-69
2022/05/16 06:06:48;;;;;;;6.97;2.30;;;19.80;89.40;;;;;;4158100;28;20042;-69
2022/05/16 06:08:49;;;;;;;9.05;3.10;;;19.90;89.20;;;;;;4152399;28;20044;-69
2022/05/16 06:10:50;;;;;;;8.45;2.50;;;19.90;89.50;;;;;;4157911;28;20033;-69
2022/05/16 06:12:51;;;;;;;5.68;2.45;;;19.90;88.60;;;;;;4158070;28;20068;-69
2022/05/16 06:14:51;;;;;;;7.90;2.75;;;20.00;89.20;;;;;;4158309;28;20087;-69
2022/05/16 06:16:53;;;;;;;5.20;2.22;;;20.10;89.00;;;;;;4158075;28;20080;-69
2022/05/16 06:18:53;;;;;;;8.30;2.65;;;20.20;88.60;;;;;;4158966;28;20039;-69
2022/05/16 06:20:54;;;;;;;5.82;2.20;;;20.30;88.30;;;;;;4158215;28;20116;-69
2022/05/16 06:22:55;;;;;;;7.88;2.47;;;20.40;87.50;;;;;;4158427;28;20069;-69
2022/05/16 06:27:15;;;;;;;6.85;2.60;;;20.70;86.10;;;;;;4153585;28;20026;-69
2022/05/16 06:29:16;;;;;;;9.43;2.90;;;20.70;85.80;;;;;;4158376;28;20669;-69
2022/05/16 06:31:16;;;;;;;8.52;2.60;;;20.70;85.60;;;;;;4159075;28;20037;-69
2022/05/16 06:33:20;;;;;;;8.48;3.10;;;20.80;85.70;;;;;;4156763;28;20044;-69
2022/05/16 06:35:20;;;;;;;8.63;2.20;;;20.80;85.70;;;;;;4158445;28;20045;-69
2022/05/16 06:37:21;;;;;;;6.13;2.53;;;20.80;85.20;;;;;;4158498;28;20485;-69
2022/05/16 06:39:21;;;;;;;6.00;2.72;;;20.80;85.10;;;;;;4158519;28;20053;-69
2022/05/16 06:41:22;;;;;;;5.93;2.03;;;20.80;84.90;;;;;;4155351;28;20491;-69
2022/05/16 06:43:25;;;;;;;4.72;2.10;;;20.80;85.40;;;;;;4153239;28;20041;-69
2022/05/16 06:45:25;;;;;;;4.28;2.00;;;20.80;85.80;;;;;;4154521;28;20540;-69
2022/05/16 06:47:26;;;;;;;7.05;2.55;;;20.80;86.20;;;;;;4157285;28;20179;-69
2022/05/16 06:49:27;;;;;;;4.03;2.30;;;20.90;86.50;;;;;;4153682;28;20875;-69
2022/05/16 06:51:27;;;;;;;6.90;2.50;;;20.90;86.20;;;;;;4152030;28;20141;-68
2022/05/16 06:53:30;;;;;;;6.70;2.72;;;20.90;85.80;;;;;;4155925;28;20388;-68
2022/05/16 06:55:31;;;;;;;6.95;2.50;;;20.90;86.50;;;;;;4158207;28;20033;-68
2022/05/16 06:57:33;;;;;;;8.82;2.63;;;20.90;86.20;;;;;;4158169;28;20053;-68
2022/05/16 06:59:34;;;;;;;7.82;2.78;;;20.90;86.20;;;;;;4157430;28;20370;-69
2022/05/16 07:01:35;;;;;;;7.05;2.30;;;20.90;87.00;;;;;;4155395;28;20103;-70
2022/05/16 07:03:37;;;;;;;8.35;2.85;;;20.90;86.80;;;;;;4144893;28;20037;-69
2022/05/16 07:05:39;;;;;;;4.78;2.30;;;20.90;86.40;;;;;;4159291;28;20129;-68
2022/05/16 07:07:40;;;;;;;8.50;2.95;;;20.80;87.10;;;;;;4156092;28;20128;-68
2022/05/16 07:09:41;;;;;;;7.25;2.78;;;20.90;87.70;;;;;;4157749;28;20061;-68
2022/05/16 07:11:41;;;;;;;5.55;2.70;;;20.80;88.40;;;;;;4157028;28;20045;-68
2022/05/16 07:13:42;;;;;;;9.63;3.22;;;20.80;90.00;;;;;;4154616;28;20499;-70
2022/05/16 07:15:43;;;;;;;6.72;2.65;;;20.80;90.90;;;;;;4157766;28;20359;-69
2022/05/16 07:17:44;;;;;;;5.40;2.63;;;20.80;92.10;;;;;;4153394;28;20045;-69
2022/05/16 07:19:46;;;;;;;13.30;2.65;;;20.70;92.70;;;;;;4158504;28;20034;-69
2022/05/16 07:21:47;;;;;;;;;;;20.60;92.50;;;;;;4151289;28;20038;-69
2022/05/16 07:23:47;;;;;;;11.38;3.47;;;20.70;93.00;;;;;;4157373;28;19955;-69
2022/05/16 07:28:07;;;;;;;6.13;3.00;;;20.60;93.70;;;;;;4155002;28;20474;-70
2022/05/16 07:30:09;;;;;;;7.63;3.30;;;20.60;94.70;;;;;;4159210;28;20400;-71
2022/05/16 07:32:11;;;;;;;9.45;3.08;;;20.50;95.00;;;;;;4158075;28;20128;-71
2022/05/16 07:34:12;;;;;;;7.73;2.90;;;20.40;95.00;;;;;;4155689;28;20029;-71
2022/05/16 07:36:13;;;;;;;11.75;3.17;;;20.30;95.20;;;;;;4153262;28;20497;-71
2022/05/16 07:38:14;;;;;;;9.77;3.67;;;20.30;96.00;;;;;;4158293;28;20041;-70
2022/05/16 07:40:16;;;;;;;6.07;3.10;;;20.20;96.80;;;;;;4157352;28;20382;-70
2022/05/16 07:42:17;;;;;;;6.97;2.92;;;20.20;97.80;;;;;;4156489;28;20187;-71
2022/05/16 07:44:18;;;;;;;5.07;2.72;;;20.20;98.80;;;;;;4154333;28;20085;-71
2022/05/16 07:46:18;;;;;;;9.68;3.08;;;20.20;99.90;;;;;;4156041;28;20041;-70
2022/05/16 07:48:19;;;;;;;8.35;2.88;;;20.20;99.40;;;;;;4158001;28;20077;-70
2022/05/16 07:50:20;;;;;;;5.70;3.33;;;20.10;99.90;;;;;;4158767;28;20045;-71
2022/05/16 07:52:20;;;;;;;8.32;3.15;;;20.00;99.90;;;;;;4158996;28;20046;-71
2022/05/16 07:54:21;;;;;;;6.07;2.95;;;19.80;99.90;;;;;;4158500;28;20091;-71
2022/05/16 07:56:21;;;;;;;10.45;3.03;;;19.80;99.90;;;;;;4150288;28;20045;-71
2022/05/16 07:58:24;;;;;;;13.75;3.03;;;19.80;99.90;;;;;;4159197;28;20232;-71
2022/05/16 08:00:24;;;;;;;3.83;2.70;;;19.70;99.90;;;;;;4156658;28;20037;-70
2022/05/16 08:02:25;;;;;;;6.32;2.58;;;19.70;99.90;;;;;;4156468;28;20055;-70
2022/05/16 08:04:26;;;;;;;8.45;3.10;;;19.80;99.90;;;;;;4158117;28;20129;-70
2022/05/16 08:06:27;;;;;;;6.75;2.50;;;19.80;99.90;;;;;;4157991;28;20131;-69
2022/05/16 08:10:54;;;;;;;5.30;3.10;;;19.80;99.90;;;;;;4156530;28;20086;-69
2022/05/16 08:12:55;;;;;;;12.20;3.97;;;19.70;99.90;;;;;;4131039;28;20448;-70
2022/05/16 08:14:55;;;;;;;5.97;3.15;;;19.70;99.90;;;;;;4156974;28;20042;-70
2022/05/16 08:16:56;;;;;;;8.30;3.45;;;19.60;99.90;;;;;;4156031;28;20132;-69
2022/05/16 08:18:57;;;;;;;6.45;3.60;;;19.60;99.90;;;;;;4158725;28;20053;-69
2022/05/16 08:20:57;;;;;;;10.18;4.03;;;19.50;99.90;;;;;;4157033;28;20057;-70
2022/05/16 08:22:58;;;;;;;5.38;3.00;;;19.50;99.90;;;;;;4157779;28;20064;-70
2022/05/16 08:24:59;;;;;;;6.00;2.85;;;19.50;99.90;;;;;;4157474;28;20029;-69
2022/05/16 08:27:02;;;;;;;8.70;3.47;;;19.50;99.90;;;;;;4158057;28;20040;-69
2022/05/16 08:29:03;;;;;;;8.23;3.72;;;19.50;99.90;;;;;;4152903;28;20053;-69
2022/05/16 08:31:04;;;;;;;6.00;3.35;;;19.50;99.90;;;;;;4154649;28;20049;-69
2022/05/16 08:33:05;;;;;;;7.57;3.25;;;19.50;99.90;;;;;;4156667;28;20046;-69
2022/05/16 08:35:08;;;;;;;7.18;3.45;;;19.50;99.90;;;;;;4156270;28;20498;-72
2022/05/16 08:41:53;;;;;;;5.97;2.80;;;19.60;99.90;;;;;;4156382;28;20140;-70
2022/05/16 08:44:15;;;;;;;6.97;3.80;;;19.60;99.90;;;;;;4156172;28;20022;-70
2022/05/16 08:46:18;;;;;;;15.40;4.18;;;19.60;99.90;;;;;;4153717;28;20037;-70
2022/05/16 08:48:25;;;;;;;6.05;3.00;;;19.60;99.90;;;;;;4156899;28;20036;-70
2022/05/16 08:50:34;;;;;;;12.57;3.78;;;19.60;99.90;;;;;;4157608;28;20041;-69
2022/05/16 08:52:51;;;;;;;5.68;3.38;;;19.70;99.90;;;;;;4155931;28;20034;-70
2022/05/16 08:55:28;;;;;;;6.18;3.45;;;19.80;99.90;;;;;;4154621;28;20037;-69
2022/05/16 08:57:36;;;;;;;7.70;3.47;;;19.80;99.90;;;;;;4154078;28;20505;-70
2022/05/16 08:59:41;;;;;;;8.18;3.38;;;19.80;99.90;;;;;;4154549;28;20025;-70
2022/05/16 09:01:52;;;;;;;9.32;3.53;;;19.90;99.90;;;;;;4154096;28;20040;-70
2022/05/16 09:03:56;;;;;;;9.65;3.13;;;20.00;99.90;;;;;;4155839;28;20068;-69
2022/05/16 09:06:05;;;;;;;8.90;3.75;;;20.10;99.90;;;;;;4154683;28;20030;-69
2022/05/16 09:08:11;;;;;;;5.95;3.30;;;20.20;99.90;;;;;;4154966;28;20484;-69
2022/05/16 09:10:43;;;;;;;9.00;3.63;;;20.40;99.90;;;;;;4155151;28;20029;-69
2022/05/16 09:13:04;;;;;;;8.32;3.70;;;20.50;99.90;;;;;;4156282;28;20026;-69
2022/05/16 09:15:26;;;;;;;6.50;3.35;;;20.70;99.90;;;;;;4156945;28;20121;-70
2022/05/16 09:17:48;;;;;;;7.13;3.45;;;20.90;99.90;;;;;;4155199;28;20038;-69
2022/05/16 09:20:06;;;;;;;8.63;4.00;;;21.00;99.90;;;;;;4155978;28;20153;-69
2022/05/16 09:22:22;;;;;;;7.43;3.40;;;21.20;99.90;;;;;;4158100;28;20029;-69
2022/05/16 09:24:35;;;;;;;6.32;3.72;;;21.30;99.90;;;;;;4158176;28;20385;-69
2022/05/16 09:26:54;;;;;;;;;;;21.50;99.90;;;;;;4156924;28;20030;-69
2022/05/16 09:29:22;;;;;;;8.40;3.60;;;21.60;99.90;;;;;;4156368;28;19917;-69
2022/05/16 09:31:39;;;;;;;6.93;3.70;;;21.90;99.90;;;;;;4156403;28;20438;-69
2022/05/16 09:33:47;;;;;;;8.77;3.28;;;22.10;99.90;;;;;;4131442;28;20481;-68
2022/05/16 09:35:56;;;;;;;8.50;3.50;;;22.30;99.90;;;;;;4155807;28;20052;-67
2022/05/16 09:37:58;;;;;;;5.90;3.22;;;22.40;99.90;;;;;;4154720;28;20042;-67
2022/05/16 09:39:59;;;;;;;5.25;2.70;;;22.60;99.90;;;;;;4149722;28;20034;-67
2022/05/16 09:42:19;;;;;;;5.78;2.53;;;22.70;99.90;;;;;;4156864;28;20048;-67
2022/05/16 09:44:26;;;;;;;6.30;2.75;;;22.80;99.90;;;;;;4150569;28;20030;-67
2022/05/16 09:46:27;;;;;;;4.28;2.78;;;23.00;99.90;;;;;;4154043;28;20057;-67
2022/05/16 09:48:27;;;;;;;7.93;3.25;;;23.10;99.90;;;;;;4157255;28;20053;-68
2022/05/16 09:50:28;;;;;;;6.05;3.00;;;23.20;99.90;;;;;;4155553;28;20073;-67
2022/05/16 09:52:31;;;;;;;4.65;2.60;;;23.20;99.90;;;;;;4154656;28;20045;-68
2022/05/16 09:54:37;;;;;;;6.60;2.97;;;23.30;99.90;;;;;;4157512;28;20034;-68
2022/05/16 09:56:38;;;;;;;6.78;2.78;;;23.30;99.90;;;;;;4156289;28;20034;-67
2022/05/16 09:58:47;;;;;;;3.45;2.08;;;23.40;99.90;;;;;;4157894;28;20041;-68
2022/05/16 10:00:58;;;;;;;3.45;2.17;;;23.40;99.90;;;;;;4154930;28;20100;-67
2022/05/16 10:03:13;;;;;;;5.65;2.63;;;23.50;99.90;;;;;;4154116;28;20053;-67
2022/05/16 10:05:22;;;;;;;5.13;1.98;;;23.40;97.50;;;;;;4156242;28;20452;-67
2022/05/16 10:07:46;;;;;;;2.50;1.75;;;23.50;98.40;;;;;;4157900;28;20060;-67
2022/05/16 10:09:50;;;;;;;4.03;1.98;;;23.60;98.40;;;;;;4155123;28;20044;-67
2022/05/16 10:11:51;;;;;;;4.82;2.10;;;23.60;98.70;;;;;;4154624;28;20038;-67
2022/05/16 10:13:52;;;;;;;4.82;2.10;;;23.70;98.20;;;;;;4157301;28;20052;-67
2022/05/16 10:15:56;;;;;;;4.70;2.03;;;23.80;98.00;;;;;;4155385;28;20040;-67
2022/05/16 10:17:59;;;;;;;3.55;1.80;;;23.90;98.30;;;;;;4156095;28;20064;-67
2022/05/16 10:20:06;;;;;;;4.22;1.83;;;24.10;98.50;;;;;;4159643;28;20381;-67
2022/05/16 10:22:19;;;;;;;6.53;2.60;;;24.20;96.80;;;;;;4158590;28;20471;-67
2022/05/16 10:24:23;;;;;;;3.92;2.00;;;24.30;97.60;;;;;;4158991;28;20034;-67
2022/05/16 10:26:30;;;;;;;5.65;2.53;;;24.40;97.10;;;;;;4158589;28;20045;-67
2022/05/16 10:28:37;;;;;;;9.13;2.60;;;24.50;97.00;;;;;;4156987;28;20049;-67
2022/05/16 10:35:28;;;;;;;4.30;2.10;;;24.60;97.20;;;;;;4158043;28;20041;-67
2022/05/16 10:37:33;;;;;;;7.38;2.55;;;24.70;97.80;;;;;;4159119;28;20394;-67
2022/05/16 10:39:38;;;;;;;11.13;3.53;;;24.80;97.30;;;;;;4160424;28;20121;-67
2022/05/16 10:42:04;;;;;;;4.15;2.25;;;24.90;95.90;;;;;;4157558;28;20037;-67
2022/05/16 10:44:27;;;;;;;5.68;2.80;;;24.90;97.40;;;;;;4158239;28;20046;-67
2022/05/16 10:46:33;;;;;;;5.45;2.40;;;25.00;96.70;;;;;;4157212;28;20508;-67
2022/05/16 10:48:57;;;;;;;4.18;2.20;;;25.10;96.60;;;;;;4158804;28;20029;-67
2022/05/16 10:51:08;;;;;;;5.50;2.35;;;25.10;96.50;;;;;;4157423;28;20428;-67
2022/05/16 10:53:34;;;;;;;5.82;2.60;;;25.20;96.30;;;;;;4159192;28;20469;-68
2022/05/16 10:55:50;;;;;;;4.20;2.30;;;25.20;97.10;;;;;;4155972;28;20067;-67
2022/05/16 10:58:10;;;;;;;4.82;2.58;;;25.30;97.00;;;;;;4159645;28;20038;-68
2022/05/16 11:00:20;;;;;;;5.80;2.40;;;25.30;96.10;;;;;;4155779;28;20105;-68
2022/05/16 11:02:23;;;;;;;7.03;2.28;;;25.40;96.30;;;;;;4158442;28;20053;-68
2022/05/16 11:05:00;;;;;;;8.93;2.60;;;25.40;96.80;;;;;;4157947;28;21202;-67
2022/05/16 11:07:29;;;;;;;5.82;2.90;;;25.50;96.20;;;;;;4157978;28;20052;-67
2022/05/16 11:09:44;;;;;;;8.65;2.38;;;25.60;96.10;;;;;;4155957;28;20041;-67
2022/05/16 11:12:06;;;;;;;4.88;2.30;;;25.70;96.90;;;;;;4155931;28;20038;-69
2022/05/16 11:14:16;;;;;;;5.38;2.70;;;25.90;98.20;;;;;;4159017;28;20385;-68
2022/05/16 11:16:31;;;;;;;4.25;2.40;;;25.90;97.20;;;;;;4156819;28;20033;-68
2022/05/16 11:18:53;;;;;;;4.70;2.40;;;26.00;96.50;;;;;;4158531;28;20496;-68